Time;durP1;ratioP1;P1;durP2;ratioP2;P2;SDS_P1;SDS_P2;PMS_P1;PMS_P2;Temp;Humidity;BMP_temperature;BMP_pressure;BME280_temperature;BME280_humidity;BME280_pressure;Samples;Min_cycle;Max_cycle;Signal;HPM_P1;HPM_P2
2021/07/23 00:01:00;;;;;;;14.97;13.47;;;19.20;1.00;;;;;;5084326;27;20466;-75
2021/07/23 00:03:27;;;;;;;17.50;14.17;;;19.20;1.00;;;;;;5083750;27;20454;-76
2021/07/23 00:05:53;;;;;;;15.63;14.10;;;19.20;1.00;;;;;;5079390;27;20421;-75
2021/07/23 00:08:20;;;;;;;16.73;14.03;;;19.10;1.00;;;;;;5082665;27;20464;-76
2021/07/23 00:10:46;;;;;;;16.40;14.70;;;19.10;1.00;;;;;;5083277;27;20481;-75
2021/07/23 00:13:13;;;;;;;17.93;14.43;;;19.10;1.00;;;;;;5081809;27;20441;-75
2021/07/23 00:15:41;;;;;;;15.80;13.60;;;19.10;1.00;;;;;;5082174;27;21172;-76
2021/07/23 00:18:08;;;;;;;19.33;14.47;;;19.00;1.00;;;;;;5075598;27;20453;-77
2021/07/23 00:20:34;;;;;;;17.33;15.37;;;19.00;1.00;;;;;;5080147;27;20533;-76
2021/07/23 00:23:01;;;;;;;18.47;15.50;;;18.90;1.00;;;;;;5083396;27;20576;-76
2021/07/23 00:25:27;;;;;;;18.07;15.97;;;18.90;1.00;;;;;;5083100;27;20555;-75
2021/07/23 00:27:54;;;;;;;16.07;14.30;;;18.80;1.00;;;;;;5083845;27;20442;-77
2021/07/23 00:30:21;;;;;;;18.90;14.23;;;18.70;1.00;;;;;;5083945;27;20457;-76
2021/07/23 00:32:49;;;;;;;16.10;14.00;;;18.60;1.00;;;;;;5083975;27;20963;-76
2021/07/23 00:35:16;;;;;;;17.13;15.33;;;18.50;1.00;;;;;;5065753;27;20868;-76
2021/07/23 00:37:43;;;;;;;16.60;14.80;;;18.40;1.00;;;;;;5077531;27;20446;-76
2021/07/23 00:40:10;;;;;;;16.23;14.20;;;18.30;1.00;;;;;;5081962;27;20474;-75
2021/07/23 00:42:39;;;;;;;16.97;15.23;;;18.30;1.00;;;;;;5083391;27;20441;-75
2021/07/23 00:45:07;;;;;;;17.07;15.37;;;18.20;1.00;;;;;;5083489;27;20456;-76
2021/07/23 00:47:34;;;;;;;17.07;15.30;;;18.20;1.00;;;;;;5082343;27;20477;-76
2021/07/23 00:50:03;;;;;;;17.27;15.20;;;18.10;1.00;;;;;;5084976;27;20996;-76
2021/07/23 00:52:30;;;;;;;17.40;15.23;;;18.10;1.00;;;;;;5085500;27;20452;-76
2021/07/23 00:54:57;;;;;;;17.00;15.20;;;18.10;1.00;;;;;;5072822;27;20434;-75
2021/07/23 00:57:24;;;;;;;16.90;15.13;;;18.00;1.00;;;;;;5082408;27;21196;-76
2021/07/23 00:59:51;;;;;;;17.70;14.40;;;18.00;1.00;;;;;;5085161;27;20454;-76
2021/07/23 01:02:18;;;;;;;17.97;16.07;;;18.00;1.00;;;;;;5084254;27;20452;-76
2021/07/23 01:04:46;;;;;;;21.87;17.43;;;17.90;1.00;;;;;;5082693;27;20842;-75
2021/07/23 01:07:14;;;;;;;18.47;15.67;;;17.90;1.00;;;;;;5081538;27;20462;-76
2021/07/23 01:09:41;;;;;;;16.97;15.20;;;17.90;1.00;;;;;;5081783;27;20650;-75
2021/07/23 01:12:10;;;;;;;17.83;15.80;;;17.80;1.00;;;;;;5083567;27;20913;-75
2021/07/23 01:14:38;;;;;;;17.60;15.77;;;17.80;1.00;;;;;;5079128;27;20469;-76
2021/07/23 01:17:04;;;;;;;19.00;17.07;;;17.80;1.00;;;;;;5086243;27;20461;-76
2021/07/23 01:19:35;;;;;;;19.37;16.70;;;17.80;1.00;;;;;;5083584;27;20464;-77
2021/07/23 01:22:07;;;;;;;18.13;15.97;;;17.80;1.00;;;;;;5081167;27;20437;-77
2021/07/23 01:24:35;;;;;;;17.47;15.60;;;17.80;1.00;;;;;;5082850;27;20453;-77
2021/07/23 01:27:02;;;;;;;18.40;16.10;;;17.80;1.00;;;;;;5080505;27;20445;-77
2021/07/23 01:29:29;;;;;;;18.50;16.50;;;17.80;1.00;;;;;;5087107;27;20794;-76
2021/07/23 01:31:56;;;;;;;17.33;15.40;;;17.70;1.00;;;;;;5083986;27;20452;-77
2021/07/23 01:34:22;;;;;;;17.13;15.20;;;17.80;1.00;;;;;;5085279;27;20485;-77
2021/07/23 01:36:49;;;;;;;19.33;15.70;;;17.80;1.00;;;;;;5084261;27;20437;-75
2021/07/23 01:39:18;;;;;;;19.47;16.20;;;17.80;1.00;;;;;;5081119;27;20465;-75
2021/07/23 01:41:46;;;;;;;17.73;16.03;;;17.90;1.00;;;;;;5084625;27;22607;-75
2021/07/23 01:44:12;;;;;;;17.23;15.37;;;17.90;1.00;;;;;;5077858;27;20999;-77
2021/07/23 01:46:39;;;;;;;18.30;16.30;;;17.80;1.00;;;;;;5084730;27;20444;-75
2021/07/23 01:49:05;;;;;;;17.40;15.60;;;17.80;1.00;;;;;;5087090;27;20461;-76
2021/07/23 01:51:32;;;;;;;17.50;15.80;;;17.70;1.00;;;;;;5063252;27;20500;-75
2021/07/23 01:54:00;;;;;;;17.50;15.60;;;17.70;1.00;;;;;;5089300;27;20456;-75
2021/07/23 01:56:27;;;;;;;16.97;15.27;;;17.60;1.00;;;;;;5082526;27;20465;-76
2021/07/23 01:58:55;;;;;;;18.30;16.40;;;17.50;1.00;;;;;;5086116;27;20461;-76
2021/07/23 02:01:22;;;;;;;18.13;15.57;;;17.50;1.00;;;;;;5083747;27;20469;-75
2021/07/23 02:03:48;;;;;;;17.40;15.53;;;17.40;1.00;;;;;;5084963;27;22755;-75
2021/07/23 02:06:15;;;;;;;17.60;15.70;;;17.40;1.00;;;;;;5085054;27;20468;-76
2021/07/23 02:08:42;;;;;;;17.57;15.77;;;17.40;1.00;;;;;;5083631;27;20557;-76
2021/07/23 02:11:09;;;;;;;18.70;16.70;;;17.40;1.00;;;;;;5081891;27;20849;-76
2021/07/23 02:13:35;;;;;;;16.80;15.10;;;17.40;1.00;;;;;;5082290;27;20859;-75
2021/07/23 02:16:05;;;;;;;18.90;16.90;;;17.40;1.00;;;;;;5082167;27;20896;-75
2021/07/23 02:18:31;;;;;;;19.30;16.87;;;17.40;1.00;;;;;;5080648;27;20467;-76
2021/07/23 02:20:58;;;;;;;19.23;17.30;;;17.30;1.00;;;;;;5085441;27;20909;-76
2021/07/23 02:23:25;;;;;;;18.83;16.80;;;17.30;1.00;;;;;;5090220;27;21077;-75
2021/07/23 02:25:51;;;;;;;22.20;18.90;;;17.30;1.00;;;;;;5081976;27;20781;-75
2021/07/23 02:28:18;;;;;;;18.53;16.70;;;17.30;1.00;;;;;;5083451;27;20469;-76
2021/07/23 02:30:45;;;;;;;19.33;16.90;;;17.30;1.00;;;;;;5082251;27;20492;-76
2021/07/23 02:33:13;;;;;;;22.90;17.07;;;17.30;1.00;;;;;;5081102;27;20472;-75
2021/07/23 02:35:39;;;;;;;18.30;16.40;;;17.40;1.00;;;;;;5084564;27;20469;-76
2021/07/23 02:38:06;;;;;;;21.80;17.50;;;17.40;1.00;;;;;;5084140;27;20472;-75
2021/07/23 02:40:32;;;;;;;20.47;18.30;;;17.40;1.00;;;;;;5084139;27;20457;-76
2021/07/23 02:42:59;;;;;;;17.17;15.40;;;17.40;1.00;;;;;;5080409;27;20441;-76
2021/07/23 02:45:26;;;;;;;20.63;16.80;;;17.40;1.00;;;;;;5083828;27;20468;-76
2021/07/23 02:47:52;;;;;;;18.40;15.87;;;17.50;1.00;;;;;;5068714;27;20472;-76
2021/07/23 02:50:20;;;;;;;19.73;15.90;;;17.40;1.00;;;;;;5078762;27;21660;-76
2021/07/23 02:52:47;;;;;;;20.43;17.63;;;17.40;1.00;;;;;;5084275;27;20480;-76
2021/07/23 02:55:14;;;;;;;19.33;17.37;;;17.30;1.00;;;;;;5081180;27;20440;-76
2021/07/23 02:57:40;;;;;;;19.80;17.80;;;17.30;1.00;;;;;;5084520;27;21303;-75
2021/07/23 03:00:08;;;;;;;18.43;16.60;;;17.20;1.00;;;;;;5086030;27;20532;-75
2021/07/23 03:02:35;;;;;;;19.40;17.47;;;17.20;1.00;;;;;;5080045;27;20516;-76
2021/07/23 03:05:02;;;;;;;19.90;17.23;;;17.10;1.00;;;;;;5082289;27;20506;-75
2021/07/23 03:07:30;;;;;;;18.97;17.07;;;17.10;1.00;;;;;;5077911;27;20452;-76
2021/07/23 03:09:56;;;;;;;19.07;17.07;;;17.20;1.00;;;;;;5080752;27;21097;-76
2021/07/23 03:12:23;;;;;;;20.10;17.07;;;17.20;1.00;;;;;;5083113;27;20460;-76
2021/07/23 03:14:50;;;;;;;20.13;17.70;;;17.20;1.00;;;;;;5082210;27;20449;-75
2021/07/23 03:17:16;;;;;;;20.60;17.40;;;17.10;1.00;;;;;;5085160;27;21621;-75
2021/07/23 03:19:43;;;;;;;19.27;17.00;;;17.20;1.00;;;;;;5079869;27;21198;-76
2021/07/23 03:22:09;;;;;;;21.50;19.30;;;17.10;1.00;;;;;;5060869;27;20916;-76
2021/07/23 03:24:37;;;;;;;18.57;16.57;;;17.10;1.00;;;;;;5085891;27;20449;-76
2021/07/23 03:27:05;;;;;;;19.23;16.37;;;17.10;1.00;;;;;;5080551;27;20507;-76
2021/07/23 03:29:32;;;;;;;24.77;18.60;;;17.10;1.00;;;;;;5082255;27;20499;-75
2021/07/23 03:31:58;;;;;;;21.57;17.27;;;17.10;1.00;;;;;;5083397;27;20550;-75
2021/07/23 03:34:25;;;;;;;22.90;18.70;;;17.10;1.00;;;;;;5084602;27;20992;-76
2021/07/23 03:36:52;;;;;;;20.50;17.10;;;17.10;1.00;;;;;;5084973;27;20460;-76
2021/07/23 03:39:18;;;;;;;19.63;17.50;;;17.20;1.00;;;;;;5085478;27;20452;-75
2021/07/23 03:41:46;;;;;;;21.03;18.90;;;17.20;1.00;;;;;;5077683;27;20605;-76
2021/07/23 03:44:13;;;;;;;22.13;18.63;;;17.30;1.00;;;;;;5080782;27;21187;-76
2021/07/23 03:46:39;;;;;;;19.00;17.00;;;17.30;1.00;;;;;;5083518;27;20472;-76
2021/07/23 03:49:06;;;;;;;20.03;18.00;;;17.30;1.00;;;;;;5086597;27;20814;-75
2021/07/23 03:51:33;;;;;;;20.27;18.27;;;17.30;1.00;;;;;;5082697;27;20476;-77
2021/07/23 03:54:00;;;;;;;21.23;17.57;;;17.40;1.00;;;;;;5084674;27;20580;-77
2021/07/23 03:56:27;;;;;;;21.60;19.17;;;17.40;1.00;;;;;;5084193;27;20460;-76
2021/07/23 03:58:55;;;;;;;26.20;18.73;;;17.40;1.00;;;;;;5081574;27;20441;-76
2021/07/23 04:01:21;;;;;;;22.53;18.73;;;17.50;1.00;;;;;;5087947;27;20438;-77
2021/07/23 04:03:48;;;;;;;20.90;18.67;;;17.50;1.00;;;;;;5088176;27;20453;-77
2021/07/23 04:06:14;;;;;;;22.23;18.00;;;17.60;1.00;;;;;;5088056;27;21022;-78
2021/07/23 04:08:41;;;;;;;25.50;17.70;;;17.60;1.00;;;;;;5065542;27;20906;-77
2021/07/23 04:11:13;;;;;;;20.20;17.60;;;17.60;1.00;;;;;;5084077;27;20445;-76
2021/07/23 04:13:40;;;;;;;21.67;18.10;;;17.50;1.00;;;;;;5078433;27;20463;-76
2021/07/23 04:16:08;;;;;;;23.67;19.83;;;17.50;1.00;;;;;;5085040;27;20453;-75
2021/07/23 04:18:35;;;;;;;19.47;17.40;;;17.60;1.00;;;;;;5084851;27;20444;-76
2021/07/23 04:21:04;;;;;;;25.60;17.67;;;17.60;1.00;;;;;;5078573;27;20999;-76
2021/07/23 04:23:31;;;;;;;22.40;20.00;;;17.80;1.00;;;;;;5088463;27;20546;-77
2021/07/23 04:25:58;;;;;;;22.20;18.63;;;17.90;1.00;;;;;;5090432;27;21949;-76
2021/07/23 04:28:25;;;;;;;22.47;17.07;;;18.00;1.00;;;;;;5090064;27;20554;-76
2021/07/23 04:30:51;;;;;;;19.70;17.70;;;18.10;1.00;;;;;;5085921;27;20449;-76
2021/07/23 04:33:19;;;;;;;23.50;18.80;;;18.10;1.00;;;;;;5087879;27;20473;-76
2021/07/23 04:35:47;;;;;;;22.17;17.73;;;18.10;1.00;;;;;;5090383;27;20467;-77
2021/07/23 04:38:14;;;;;;;21.73;19.40;;;18.10;1.00;;;;;;5088702;27;20402;-77
2021/07/23 04:40:40;;;;;;;20.07;17.70;;;18.20;1.00;;;;;;5087105;27;20458;-76
2021/07/23 04:43:07;;;;;;;19.70;17.60;;;18.30;1.00;;;;;;5086294;27;20896;-76
2021/07/23 04:45:34;;;;;;;22.50;17.80;;;18.30;1.00;;;;;;5089792;27;20461;-76
2021/07/23 04:48:00;;;;;;;19.93;17.80;;;18.30;1.00;;;;;;5083863;27;20527;-77
2021/07/23 04:50:28;;;;;;;20.60;18.23;;;18.40;1.00;;;;;;5088977;27;20461;-77
2021/07/23 04:52:56;;;;;;;19.93;17.40;;;18.50;1.00;;;;;;5087436;27;21321;-77
2021/07/23 04:55:23;;;;;;;20.80;18.60;;;18.40;1.00;;;;;;5087364;27;20452;-77
2021/07/23 04:57:50;;;;;;;21.70;18.30;;;18.40;1.00;;;;;;5086803;27;21046;-75
2021/07/23 05:00:17;;;;;;;21.03;18.93;;;18.40;1.00;;;;;;5088052;27;20572;-76
2021/07/23 05:02:44;;;;;;;21.47;19.40;;;18.40;1.00;;;;;;5089466;27;20453;-77
2021/07/23 05:05:12;;;;;;;23.03;18.77;;;18.40;1.00;;;;;;5086369;27;20448;-77
2021/07/23 05:07:41;;;;;;;21.67;18.57;;;18.50;1.00;;;;;;5068952;27;20446;-77
2021/07/23 05:10:08;;;;;;;21.90;19.60;;;18.50;1.00;;;;;;5083725;27;20452;-78
2021/07/23 05:12:35;;;;;;;21.90;19.80;;;18.50;1.00;;;;;;5089114;27;20457;-82
2021/07/23 05:15:03;;;;;;;24.90;19.63;;;18.50;1.00;;;;;;5087703;27;21326;-82
2021/07/23 05:17:30;;;;;;;21.73;18.40;;;18.60;1.00;;;;;;5092103;27;20402;-81
2021/07/23 05:19:57;;;;;;;28.27;25.43;;;18.60;1.00;;;;;;5088200;27;20465;-82
2021/07/23 05:22:24;;;;;;;24.33;20.17;;;18.60;1.00;;;;;;5092016;27;20445;-81
2021/07/23 05:24:52;;;;;;;22.03;19.27;;;18.60;1.00;;;;;;5097616;27;20472;-82
2021/07/23 05:27:19;;;;;;;21.73;18.67;;;18.70;1.00;;;;;;5092942;27;20434;-82
2021/07/23 05:29:45;;;;;;;24.60;19.23;;;18.80;1.00;;;;;;5089588;27;20775;-75
2021/07/23 05:32:12;;;;;;;21.50;19.30;;;18.80;1.00;;;;;;5082854;27;20870;-75
2021/07/23 05:34:38;;;;;;;27.53;20.80;;;19.00;1.00;;;;;;5082432;27;20450;-75
2021/07/23 05:37:05;;;;;;;25.73;21.30;;;19.20;1.00;;;;;;5086744;27;20987;-77
2021/07/23 05:39:32;;;;;;;21.33;19.17;;;19.40;1.00;;;;;;5084317;27;20913;-75
2021/07/23 05:42:02;;;;;;;22.83;20.27;;;19.40;1.00;;;;;;5086912;27;20449;-76
2021/07/23 05:44:30;;;;;;;31.07;22.83;;;19.50;1.00;;;;;;5085449;27;20450;-75
2021/07/23 05:46:59;;;;;;;20.67;18.50;;;19.60;1.00;;;;;;5086302;27;20434;-74
2021/07/23 05:49:25;;;;;;;24.93;19.83;;;19.80;1.00;;;;;;5085981;27;20984;-76
2021/07/23 05:51:52;;;;;;;24.03;20.47;;;19.80;1.00;;;;;;5083237;27;20455;-76
2021/07/23 05:54:19;;;;;;;25.07;19.77;;;19.80;1.00;;;;;;5088685;27;20463;-75
2021/07/23 05:56:45;;;;;;;26.07;21.10;;;19.80;1.00;;;;;;5082903;27;20457;-74
2021/07/23 05:59:13;;;;;;;22.33;19.63;;;19.90;1.00;;;;;;5084760;27;20560;-76
2021/07/23 06:01:40;;;;;;;21.30;19.00;;;20.10;1.00;;;;;;5086957;27;20795;-75
2021/07/23 06:04:07;;;;;;;22.80;20.50;;;20.30;1.00;;;;;;5086019;27;20459;-76
2021/07/23 06:06:33;;;;;;;21.13;18.93;;;20.60;1.00;;;;;;5085756;27;20510;-75
2021/07/23 06:09:01;;;;;;;20.93;18.60;;;20.80;1.00;;;;;;5081309;27;20482;-75
2021/07/23 06:11:27;;;;;;;23.53;20.00;;;20.90;1.00;;;;;;5082914;27;21102;-77
2021/07/23 06:13:54;;;;;;;19.63;17.63;;;20.90;1.00;;;;;;5100503;27;20503;-83
2021/07/23 06:16:22;;;;;;;22.07;18.37;;;21.00;1.00;;;;;;5095834;27;21239;-78
2021/07/23 06:18:48;;;;;;;23.00;18.73;;;21.10;1.00;;;;;;5095418;27;21082;-76
2021/07/23 06:21:15;;;;;;;21.83;18.20;;;21.20;1.00;;;;;;5088188;27;20556;-76
2021/07/23 06:23:42;;;;;;;20.53;18.50;;;21.30;1.00;;;;;;5087410;27;20460;-76
2021/07/23 06:26:08;;;;;;;20.97;17.77;;;21.30;1.00;;;;;;5082568;27;20452;-76
2021/07/23 06:28:35;;;;;;;22.83;20.47;;;21.20;1.00;;;;;;5094241;27;21002;-76
2021/07/23 06:31:02;;;;;;;23.40;19.57;;;21.20;1.00;;;;;;5092540;27;20538;-77
2021/07/23 06:33:30;;;;;;;19.87;17.37;;;21.20;1.00;;;;;;5072908;27;20468;-76
2021/07/23 06:35:57;;;;;;;20.00;17.80;;;21.20;1.00;;;;;;5089660;27;20461;-76
2021/07/23 06:38:24;;;;;;;20.67;17.93;;;21.30;1.00;;;;;;5091048;27;20455;-76
2021/07/23 06:40:53;;;;;;;21.20;18.73;;;21.30;1.00;;;;;;5094422;27;20438;-77
2021/07/23 06:43:20;;;;;;;19.57;17.50;;;21.40;1.00;;;;;;5088250;27;21430;-76
2021/07/23 06:45:51;;;;;;;23.80;19.77;;;21.40;1.00;;;;;;5091676;27;20424;-77
2021/07/23 06:48:18;;;;;;;22.43;18.67;;;21.50;1.00;;;;;;5091831;27;21051;-76
2021/07/23 06:50:46;;;;;;;22.93;18.77;;;21.60;1.00;;;;;;5088252;27;20523;-76
2021/07/23 06:53:12;;;;;;;25.50;19.50;;;21.70;1.00;;;;;;5091095;27;20552;-76
2021/07/23 06:55:39;;;;;;;19.90;17.80;;;21.80;1.00;;;;;;5083406;27;20410;-76
2021/07/23 06:58:05;;;;;;;22.17;18.33;;;21.90;1.00;;;;;;5068679;27;21139;-76
2021/07/23 07:00:32;;;;;;;22.20;16.70;;;22.10;1.00;;;;;;5090407;27;20454;-75
2021/07/23 07:03:00;;;;;;;18.10;16.20;;;22.30;1.00;;;;;;5085546;27;20479;-77
2021/07/23 07:05:26;;;;;;;18.07;16.20;;;22.40;1.00;;;;;;5086326;27;20953;-76
2021/07/23 07:07:54;;;;;;;17.80;15.90;;;22.60;1.00;;;;;;5087773;27;20467;-76
2021/07/23 07:10:21;;;;;;;16.80;15.10;;;22.70;1.00;;;;;;5087865;27;21339;-76
2021/07/23 07:12:48;;;;;;;19.30;15.63;;;22.80;1.00;;;;;;5083702;27;20487;-75
2021/07/23 07:15:14;;;;;;;19.40;15.77;;;22.80;1.00;;;;;;5086825;27;21233;-75
2021/07/23 07:17:41;;;;;;;15.80;14.10;;;22.90;1.00;;;;;;5084489;27;20468;-76
2021/07/23 07:20:08;;;;;;;16.03;14.43;;;22.90;1.00;;;;;;5085453;27;20467;-75
2021/07/23 07:22:36;;;;;;;14.90;13.30;;;22.80;1.00;;;;;;5078510;27;20476;-75
2021/07/23 07:25:06;;;;;;;19.10;15.30;;;22.80;1.00;;;;;;5068826;27;20450;-75
2021/07/23 07:27:33;;;;;;;14.00;12.60;;;22.90;1.00;;;;;;5090949;27;20539;-75
2021/07/23 07:30:00;;;;;;;18.53;15.60;;;23.10;1.00;;;;;;5090052;27;20892;-75
2021/07/23 07:32:27;;;;;;;16.43;15.03;;;23.30;1.00;;;;;;5089332;27;21341;-76
2021/07/23 07:34:54;;;;;;;14.93;13.43;;;23.40;1.00;;;;;;5087389;27;20458;-76
2021/07/23 07:37:20;;;;;;;18.30;15.97;;;23.40;1.00;;;;;;5092924;27;20426;-76
2021/07/23 07:39:47;;;;;;;17.03;13.93;;;23.30;1.00;;;;;;5086107;27;21032;-76
2021/07/23 07:42:16;;;;;;;15.70;14.00;;;23.20;1.00;;;;;;5082539;27;20463;-77
2021/07/23 07:44:44;;;;;;;14.10;12.60;;;23.20;1.00;;;;;;5089471;27;20457;-75
2021/07/23 07:47:11;;;;;;;13.07;11.80;;;23.50;1.00;;;;;;5084196;27;20493;-75
2021/07/23 07:49:37;;;;;;;13.80;12.50;;;23.80;1.00;;;;;;5088008;27;20443;-76
2021/07/23 07:52:05;;;;;;;18.63;15.30;;;24.00;1.00;;;;;;5091456;27;20552;-76
2021/07/23 07:54:32;;;;;;;13.83;12.50;;;24.20;1.00;;;;;;5086909;27;20471;-76
2021/07/23 07:57:05;;;;;;;12.70;11.40;;;24.20;1.00;;;;;;5091167;27;21342;-75
2021/07/23 07:59:33;;;;;;;13.70;12.30;;;24.30;1.00;;;;;;5084952;27;20587;-76
2021/07/23 08:02:00;;;;;;;14.37;11.00;;;24.30;1.00;;;;;;5086270;27;20461;-77
2021/07/23 08:04:27;;;;;;;13.93;12.53;;;24.50;1.00;;;;;;5085844;27;20446;-76
2021/07/23 08:06:53;;;;;;;14.40;12.90;;;24.60;1.00;;;;;;5092573;27;20439;-75
2021/07/23 08:09:20;;;;;;;15.20;12.30;;;24.60;1.00;;;;;;5090390;27;20959;-76
2021/07/23 08:11:47;;;;;;;13.13;11.83;;;24.60;1.00;;;;;;5089443;27;20907;-74
2021/07/23 08:14:14;;;;;;;13.70;11.90;;;24.60;1.00;;;;;;5089786;27;20453;-76
2021/07/23 08:16:42;;;;;;;11.60;10.50;;;24.60;1.00;;;;;;5084968;27;20433;-76
2021/07/23 08:19:09;;;;;;;14.27;12.60;;;24.50;1.00;;;;;;5079836;27;21000;-76
2021/07/23 08:21:36;;;;;;;11.70;10.60;;;24.70;1.00;;;;;;5086029;27;20460;-76
2021/07/23 08:24:03;;;;;;;14.37;12.60;;;24.80;1.00;;;;;;5085809;27;21770;-77
2021/07/23 08:26:30;;;;;;;12.57;11.37;;;24.90;1.00;;;;;;5089014;27;20440;-77
2021/07/23 08:28:56;;;;;;;13.13;11.93;;;24.90;1.00;;;;;;5092935;27;20463;-79
2021/07/23 08:31:23;;;;;;;15.17;13.50;;;25.10;1.00;;;;;;5100505;27;20492;-79
2021/07/23 08:33:51;;;;;;;14.77;12.50;;;25.30;1.00;;;;;;5096284;27;20418;-79
2021/07/23 08:36:18;;;;;;;12.87;11.60;;;25.50;1.00;;;;;;5102749;27;20530;-79
2021/07/23 08:38:44;;;;;;;11.80;10.73;;;25.60;1.00;;;;;;5097951;27;20461;-79
2021/07/23 08:41:12;;;;;;;12.63;11.33;;;25.70;1.00;;;;;;5101855;27;21880;-79
2021/07/23 08:43:40;;;;;;;12.67;11.37;;;25.80;1.00;;;;;;5095680;27;20558;-77
2021/07/23 08:46:06;;;;;;;12.43;10.80;;;25.90;1.00;;;;;;5099087;28;20448;-78
2021/07/23 08:48:33;;;;;;;12.70;11.50;;;26.10;1.00;;;;;;5096782;27;20569;-78
2021/07/23 08:51:01;;;;;;;12.10;10.90;;;26.20;1.00;;;;;;5097550;27;20459;-78
2021/07/23 08:53:28;;;;;;;12.37;10.80;;;26.40;1.00;;;;;;5097825;27;20442;-78
2021/07/23 08:55:55;;;;;;;12.90;11.70;;;26.50;1.00;;;;;;5093637;27;20455;-78
2021/07/23 08:58:21;;;;;;;12.00;10.90;;;26.50;1.00;;;;;;5074062;27;21583;-79
2021/07/23 09:00:48;;;;;;;13.33;11.20;;;26.40;1.00;;;;;;5093529;27;20465;-79
2021/07/23 09:03:15;;;;;;;12.53;11.10;;;26.50;1.00;;;;;;5085512;27;20881;-79
2021/07/23 09:05:45;;;;;;;12.27;10.63;;;26.50;1.00;;;;;;5099759;27;21098;-80
2021/07/23 09:08:14;;;;;;;12.23;11.00;;;26.30;1.00;;;;;;5096090;27;21655;-80
2021/07/23 09:10:42;;;;;;;14.57;12.97;;;26.10;1.00;;;;;;5084334;27;20458;-79
2021/07/23 09:13:10;;;;;;;11.90;10.70;;;26.10;1.00;;;;;;5086630;27;20419;-77
2021/07/23 09:15:38;;;;;;;12.20;11.00;;;26.40;1.00;;;;;;5096488;27;20517;-79
2021/07/23 09:18:06;;;;;;;12.13;10.83;;;26.60;1.00;;;;;;5091389;27;20461;-80
2021/07/23 09:20:36;;;;;;;12.90;10.93;;;26.90;1.00;;;;;;5091623;27;22378;-77
2021/07/23 09:23:04;;;;;;;11.93;10.73;;;27.00;1.00;;;;;;5085666;27;20473;-78
2021/07/23 09:25:43;;;;;;;11.33;10.33;;;27.20;1.00;;;;;;5087581;27;20485;-79
2021/07/23 09:28:35;;;;;;;12.60;11.30;;;27.20;1.00;;;;;;5098642;27;20691;-79
2021/07/23 09:31:03;;;;;;;11.27;10.37;;;27.20;1.00;;;;;;5054844;27;20456;-77
2021/07/23 09:33:35;;;;;;;11.73;10.63;;;27.10;1.00;;;;;;5096512;27;20476;-79
2021/07/23 09:36:03;;;;;;;11.50;10.47;;;26.90;1.00;;;;;;5095229;27;20463;-77
2021/07/23 09:38:35;;;;;;;11.30;10.20;;;26.80;1.00;;;;;;5094871;27;21603;-78
2021/07/23 09:41:04;;;;;;;13.87;12.57;;;26.60;1.00;;;;;;5096916;27;21640;-77
2021/07/23 09:43:34;;;;;;;11.90;10.80;;;26.50;1.00;;;;;;5090882;27;20470;-77
2021/07/23 09:46:20;;;;;;;12.87;11.77;;;27.20;1.00;;;;;;5093263;27;20881;-78
2021/07/23 09:48:48;;;;;;;12.87;11.60;;;28.60;1.00;;;;;;5077735;27;20458;-77
2021/07/23 09:51:15;;;;;;;12.20;11.10;;;29.70;1.00;;;;;;5102457;27;20488;-76
2021/07/23 09:53:42;;;;;;;13.17;11.30;;;30.70;1.00;;;;;;5098171;27;20992;-77
2021/07/23 09:56:11;;;;;;;11.97;10.87;;;31.40;1.00;;;;;;5077777;27;20453;-78
2021/07/23 09:58:40;;;;;;;11.90;10.63;;;31.90;1.00;;;;;;5089113;27;20453;-77
2021/07/23 10:01:09;;;;;;;11.90;10.80;;;31.60;1.00;;;;;;5090870;27;20448;-76
2021/07/23 10:03:39;;;;;;;11.57;10.50;;;30.90;1.00;;;;;;5091651;27;20437;-78
2021/07/23 10:06:09;;;;;;;11.80;10.57;;;30.90;1.00;;;;;;5084150;27;20962;-76
2021/07/23 10:08:39;;;;;;;10.60;9.57;;;31.20;1.00;;;;;;5084474;27;20421;-78
2021/07/23 10:11:08;;;;;;;11.50;10.30;;;31.80;1.00;;;;;;5093744;27;20541;-79
2021/07/23 10:13:39;;;;;;;10.97;10.07;;;32.40;1.00;;;;;;5094844;27;21041;-77
2021/07/23 10:16:07;;;;;;;11.77;10.67;;;33.00;1.00;;;;;;5092077;27;20454;-76
2021/07/23 10:18:34;;;;;;;11.40;10.40;;;33.60;1.00;;;;;;5087561;27;20476;-77
2021/07/23 10:21:03;;;;;;;12.13;10.93;;;34.30;1.00;;;;;;5093834;27;20563;-78
2021/07/23 10:23:31;;;;;;;12.47;11.43;;;34.80;1.00;;;;;;5072857;27;20489;-77
2021/07/23 10:25:59;;;;;;;13.30;11.90;;;35.00;1.00;;;;;;5089543;27;20429;-77
2021/07/23 10:28:54;;;;;;;11.73;10.63;;;33.80;1.00;;;;;;5092077;27;20567;-78
2021/07/23 10:31:41;;;;;;;12.93;11.83;;;32.80;1.00;;;;;;5093961;27;20468;-77
2021/07/23 10:34:09;;;;;;;12.10;11.00;;;33.10;1.00;;;;;;5090188;27;20469;-78
2021/07/23 10:36:41;;;;;;;12.37;11.23;;;32.80;1.00;;;;;;5087301;27;20466;-78
2021/07/23 10:39:17;;;;;;;12.23;11.03;;;32.10;1.00;;;;;;5071556;27;20475;-79
2021/07/23 10:42:18;;;;;;;11.70;10.60;;;31.70;1.00;;;;;;5093914;27;20451;-78
2021/07/23 10:44:56;;;;;;;11.63;10.63;;;32.20;1.00;;;;;;5089966;27;20437;-77
2021/07/23 10:47:35;;;;;;;12.60;11.50;;;32.30;1.00;;;;;;5091913;27;21010;-78
2021/07/23 10:50:02;;;;;;;12.77;11.37;;;32.40;1.00;;;;;;5097121;27;20710;-78
2021/07/23 10:52:35;;;;;;;13.53;12.23;;;32.30;1.00;;;;;;5090678;27;20458;-78
2021/07/23 10:55:27;;;;;;;13.53;12.33;;;32.20;1.00;;;;;;5086108;27;20553;-78
2021/07/23 10:58:30;;;;;;;13.50;12.20;;;31.70;1.00;;;;;;5097783;27;20424;-77
2021/07/23 11:00:59;;;;;;;40.03;36.43;;;31.40;1.00;;;;;;5102783;27;20438;-78
2021/07/23 11:04:02;;;;;;;11.30;10.27;;;32.10;1.00;;;;;;5090132;27;20886;-76
2021/07/23 11:06:38;;;;;;;11.93;10.83;;;32.90;1.00;;;;;;5098095;27;20464;-77
2021/07/23 11:09:07;;;;;;;12.60;11.40;;;31.80;1.00;;;;;;5107477;27;20453;-78
2021/07/23 11:11:33;;;;;;;12.87;11.67;;;31.00;1.00;;;;;;5096112;27;20445;-78
2021/07/23 11:14:20;;;;;;;12.60;11.43;;;30.10;1.00;;;;;;5099182;27;20430;-78
2021/07/23 11:16:48;;;;;;;12.93;11.73;;;29.70;1.00;;;;;;5095441;27;20531;-77
2021/07/23 11:19:20;;;;;;;12.67;11.10;;;29.70;1.00;;;;;;5072411;27;21038;-79
2021/07/23 11:21:46;;;;;;;11.33;10.33;;;29.40;1.00;;;;;;5091542;27;20437;-79
2021/07/23 11:24:15;;;;;;;11.60;10.60;;;29.30;1.00;;;;;;5090521;27;20444;-77
2021/07/23 11:26:50;;;;;;;11.57;10.47;;;29.60;1.00;;;;;;5090467;27;20437;-79
2021/07/23 11:29:30;;;;;;;12.33;11.23;;;29.60;1.00;;;;;;5086373;27;20517;-77
2021/07/23 11:32:05;;;;;;;11.07;10.07;;;30.10;1.00;;;;;;5086164;27;20488;-77
2021/07/23 11:34:36;;;;;;;10.73;9.80;;;30.60;1.00;;;;;;5088019;27;20866;-77
2021/07/23 11:37:13;;;;;;;11.30;10.13;;;31.20;1.00;;;;;;5094691;27;20550;-78
2021/07/23 11:39:52;;;;;;;11.67;10.47;;;32.90;1.00;;;;;;5091864;27;20457;-78
2021/07/23 11:42:19;;;;;;;9.93;9.03;;;34.30;1.00;;;;;;5090969;27;20465;-77
2021/07/23 11:44:51;;;;;;;10.17;9.27;;;35.30;1.00;;;;;;5088575;27;20755;-78
2021/07/23 11:47:27;;;;;;;11.40;10.23;;;36.10;1.00;;;;;;5089073;27;20452;-79
2021/07/23 11:49:55;;;;;;;10.67;9.77;;;36.30;1.00;;;;;;5090937;27;21992;-77
2021/07/23 11:52:22;;;;;;;10.70;9.70;;;36.90;1.00;;;;;;5091948;27;20459;-80
2021/07/23 11:54:56;;;;;;;11.23;10.20;;;37.20;1.00;;;;;;5093265;27;20697;-79
2021/07/23 11:57:23;;;;;;;11.43;9.50;;;37.80;1.00;;;;;;5093598;27;20910;-78
2021/07/23 11:59:50;;;;;;;11.40;10.40;;;38.00;1.00;;;;;;5090765;27;20454;-78
2021/07/23 12:02:18;;;;;;;11.77;10.30;;;37.80;1.00;;;;;;5090694;27;20557;-77
2021/07/23 12:04:46;;;;;;;10.90;10.00;;;37.90;1.00;;;;;;5092427;27;20801;-77
2021/07/23 12:07:17;;;;;;;12.00;10.97;;;37.50;1.00;;;;;;5090668;27;20517;-76
2021/07/23 12:09:44;;;;;;;11.23;10.23;;;36.70;1.00;;;;;;5108499;27;20506;-77
2021/07/23 12:12:11;;;;;;;13.33;11.57;;;35.20;1.00;;;;;;5103920;27;20871;-78
2021/07/23 12:14:38;;;;;;;11.60;10.60;;;34.00;1.00;;;;;;5089169;27;20470;-77
2021/07/23 12:17:05;;;;;;;11.40;10.40;;;33.50;1.00;;;;;;5093728;27;20492;-78
2021/07/23 12:19:32;;;;;;;9.97;8.93;;;33.70;1.00;;;;;;5088385;27;20957;-76
2021/07/23 12:22:11;;;;;;;11.50;10.40;;;33.90;1.00;;;;;;5087989;27;20468;-77
2021/07/23 12:24:38;;;;;;;11.13;10.10;;;33.70;1.00;;;;;;5090659;27;21035;-78
2021/07/23 12:27:15;;;;;;;12.63;11.53;;;33.10;1.00;;;;;;5089104;27;20968;-77
2021/07/23 12:29:42;;;;;;;11.77;10.67;;;32.00;1.00;;;;;;5087317;27;21333;-78
2021/07/23 12:32:13;;;;;;;10.73;9.83;;;31.30;1.00;;;;;;5094315;27;22841;-77
2021/07/23 12:34:39;;;;;;;10.50;9.50;;;31.70;1.00;;;;;;5089597;27;20914;-77
2021/07/23 12:37:17;;;;;;;12.30;11.30;;;33.40;1.00;;;;;;5090442;27;20452;-80
2021/07/23 12:39:51;;;;;;;12.07;10.87;;;35.00;1.00;;;;;;5089868;27;20527;-76
2021/07/23 12:42:19;;;;;;;9.40;8.60;;;36.10;1.00;;;;;;5097776;27;20924;-78
2021/07/23 12:44:46;;;;;;;10.30;9.30;;;37.00;1.00;;;;;;5091473;27;20971;-76